• Join FlightAware (Why Join?)
  • Login
  • US Flag 
05:22AM EDT


 

Airport Tracker/Info


-or-


 

Live Flight TrackerFlight Track Log ✈ EGF3681 ✈ 23-Oct-2013 ✈ KORD - KDAY

Flight Track Log - Related Links

Times and Time Zones

All times are in EDT time to prevent confusion due to time zone crossing. See the EGF3681 flight status page for this flight to view local times or setup timezone preferences in your user account.

Time Position Orientation Groundspeed Altitude Reporting Facility
EDT Latitude Longitude Course Direction KTS MPH feet Rate Location/Type
11:01PM 41.8041 -87.5740 95° East  Level Estimated
11:01PM 42.0490 -87.8210 68° East 100 115 6,100  Level FlightAware
11:01PM 42.0420 -87.7740 101° East 264 304 7,100 1,020 Climbing FlightAware
11:02PM 41.8415 -87.4473 68° East  Level FlightAware Approximate
11:02PM 42.0360 -87.7390 103° East 264 304 7,100  Level FlightAware
11:06PM 41.9700 -87.2500 100° East 351 404 15,400 1,860 Climbing FlightAware
11:07PM 41.9420 -87.1240 107° East 371 427 16,800 1,560 Climbing FlightAware
11:07PM 41.9060 -87.0730 133° Southeast 391 450 17,800 1,860 Climbing FlightAware
11:08PM 41.8500 -86.9970 135° Southeast 372 428 19,300 1,800 Climbing FlightAware
11:08PM 41.8280 -86.9640 132° Southeast 358 412 19,900 1,260 Climbing FlightAware
11:09PM 41.7800 -86.8940 133° Southeast 378 435 20,600 1,620 Climbing FlightAware
11:10PM 41.7040 -86.7810 132° Southeast 369 425 22,800 1,560 Climbing FlightAware
11:11PM 41.6790 -86.7440 132° Southeast 372 428 23,000 180 Climbing FlightAware
11:11PM 41.6340 -86.6780 132° Southeast 380 437 23,000  Level FlightAware
11:12PM 41.5980 -86.6260 133° Southeast 457 526 23,000  Level FlightAware
11:12PM 41.5560 -86.5640 132° Southeast 424 488 23,000  Level FlightAware
11:13PM 41.5140 -86.5020 132° Southeast 460 529 23,000  Level FlightAware
11:13PM 41.4760 -86.4470 133° Southeast 459 528 23,000  Level FlightAware
11:14PM 41.4010 -86.3360 132° Southeast 470 541 23,000  Level FlightAware
11:14PM 41.3860 -86.3180 138° Southeast 600 690 23,000  Level FlightAware
11:15PM 41.3060 -86.2020 133° Southeast 600 690 23,000  Level FlightAware
11:16PM 41.2360 -86.1020 133° Southeast 496 571 23,000  Level FlightAware
11:16PM 41.1770 -86.0030 128° Southeast 556 640 23,000  Level FlightAware
11:17PM 41.1520 -85.9850 152° Southeast 556 640 23,000  Level FlightAware
11:17PM 41.1150 -85.9270 130° Southeast 502 578 23,000  Level FlightAware
11:18PM 41.0450 -85.8270 133° Southeast 462 532 23,000  Level FlightAware
11:19PM 40.9540 -85.6990 133° Southeast 555 639 23,000  Level FlightAware
11:20PM 40.8820 -85.5860 130° Southeast 555 639 23,000  Level FlightAware
11:21PM 40.7980 -85.4530 130° Southeast 555 639 23,000  Level FlightAware
11:21PM 40.7630 -85.3980 130° Southeast 555 639 23,000  Level FlightAware
11:22PM 40.7120 -85.3190 130° Southeast 555 639 23,000  Level FlightAware
11:22PM 40.6620 -85.2390 129° Southeast 555 639 23,000  Level FlightAware
11:23PM 40.6280 -85.1860 130° Southeast 555 639 23,000 -6,540 Level FlightAware
11:23PM 40.5461 -85.1267 130° Southeast 412 474 15,400 -7,920 Descending Indianapolis Center
11:24PM 40.5267 -85.0983 132° Southeast 418 481 15,000 -1,680 Descending Indianapolis Center
11:24PM 40.5222 -85.0944 146° Southeast 409 471 14,900 -1,620 Descending Indianapolis Center
11:25PM 40.4503 -84.9933 133° Southeast 411 473 13,400 -1,620 Descending Indianapolis Center
11:25PM 40.4461 -84.9858 126° Southeast 402 463 13,300 -2,040 Descending Indianapolis Center
11:26PM 40.3794 -84.8950 134° Southeast 399 459 11,300 -2,040 Descending Indianapolis Center
11:26PM 40.3767 -84.8900 126° Southeast 367 422 11,300 -840 Level Indianapolis Center
11:27PM 40.3122 -84.8028 134° Southeast 375 432 10,500 -1,020 Descending Indianapolis Center
11:27PM 40.3053 -84.7939 136° Southeast 335 386 10,300 -1,380 Descending Indianapolis Center
11:28PM 40.2467 -84.7142 134° Southeast 291 335 9,100 -900 Descending Indianapolis Center
11:29PM 40.2006 -84.6489 133° Southeast 298 343 8,500 -1,020 Descending Indianapolis Center
11:30PM 40.1533 -84.5675 127° Southeast 244 281 7,100 -1,200 Descending Indianapolis Center
11:31PM 40.1261 -84.4886 114° Southeast 240 276 6,100 -900 Descending Indianapolis Center
11:31PM 40.1294 -84.4994 292° West 248 285 6,200 -540 Climbing Indianapolis Center
11:32PM 40.1003 -84.4153 114° Southeast 218 251 5,600 -540 Descending Indianapolis Center
11:32PM 40.1047 -84.4211 315° West 241 277 5,700 -1,200 Climbing Indianapolis Center
11:33PM 40.0783 -84.3456 115° Southeast 199 229 4,400 -1,320 Descending Indianapolis Center
11:33PM 40.0775 -84.3425 110° East 212 244 4,400 -840 Level Indianapolis Center
11:34PM 40.0556 -84.2811 115° Southeast 196 226 3,600 -840 Descending Indianapolis Center
11:34PM 40.0547 -84.2775 107° East 203 234 3,600 -600 Level Indianapolis Center
11:35PM 40.0283 -84.2214 122° Southeast 192 221 3,000 -600 Descending Indianapolis Center
11:35PM 40.0283 -84.2172 90° East 198 228 3,000 -600 Level Indianapolis Center
11:36PM 39.9828 -84.2133 176° South 148 170 2,400 -600 Descending Indianapolis Center
11:36PM 39.9842 -84.2144 328° Northwest 172 198 2,400 -840 Level Indianapolis Center
11:37PM 39.9428 -84.2144 180° South 141 162 1,600 -840 Descending Indianapolis Center
11:37PM 39.9439 -84.2119 60° Northeast 156 180 1,600  Level Indianapolis Center